createdAt,value
2018-05-10T00:01:21.721Z,9.57
2018-05-10T00:03:55.331Z,9.60
2018-05-10T00:06:21.809Z,8.17
2018-05-10T00:08:48.264Z,9.13
2018-05-10T00:11:14.710Z,10.27
2018-05-10T00:13:41.163Z,9.60
2018-05-10T00:16:07.728Z,8.87
2018-05-10T00:18:34.345Z,9.73
2018-05-10T00:21:01.062Z,12.47
2018-05-10T00:23:27.814Z,10.27
2018-05-10T00:25:54.280Z,10.87
2018-05-10T00:28:21.632Z,8.53
2018-05-10T00:30:48.377Z,8.83
2018-05-10T00:33:14.982Z,11.90
2018-05-10T00:35:41.786Z,8.37
2018-05-10T00:38:08.340Z,7.93
2018-05-10T00:40:34.911Z,12.33
2018-05-10T00:43:01.550Z,10.97
2018-05-10T00:45:28.369Z,12.30
2018-05-10T00:47:54.970Z,14.30
2018-05-10T00:50:21.601Z,8.50
2018-05-10T00:52:48.173Z,9.67
2018-05-10T00:55:14.739Z,8.67
2018-05-10T00:57:41.345Z,12.23
2018-05-10T01:00:07.952Z,14.70
2018-05-10T01:02:34.536Z,12.63
2018-05-10T01:05:01.225Z,13.40
2018-05-10T01:07:29.949Z,9.87
2018-05-10T01:09:56.480Z,9.20
2018-05-10T01:12:23.034Z,9.17
2018-05-10T01:14:49.646Z,10.53
2018-05-10T01:17:16.406Z,13.03
2018-05-10T01:19:42.896Z,10.50
2018-05-10T01:22:09.457Z,10.00
2018-05-10T01:24:36.039Z,13.33
2018-05-10T01:27:02.534Z,11.57
2018-05-10T01:29:29.064Z,9.33
2018-05-10T01:31:55.559Z,13.07
2018-05-10T01:34:22.264Z,14.30
2018-05-10T01:36:48.749Z,9.93
2018-05-10T01:39:15.192Z,13.13
2018-05-10T01:41:41.706Z,8.20
2018-05-10T01:44:08.212Z,9.50
2018-05-10T01:46:34.756Z,10.60
2018-05-10T01:49:01.294Z,9.50
2018-05-10T01:51:27.914Z,11.07
2018-05-10T01:53:54.505Z,13.60
2018-05-10T01:56:20.985Z,10.70
2018-05-10T01:58:47.724Z,11.07
2018-05-10T02:01:14.219Z,10.20
2018-05-10T02:03:40.839Z,9.57
2018-05-10T02:06:07.496Z,10.13
2018-05-10T02:08:34.067Z,13.97
2018-05-10T02:13:29.741Z,11.83
2018-05-10T02:15:56.250Z,10.50
2018-05-10T02:18:22.806Z,15.93
2018-05-10T02:20:49.342Z,13.80
2018-05-10T02:23:16.013Z,12.17
2018-05-10T02:25:42.655Z,10.43
2018-05-10T02:28:09.201Z,10.93
2018-05-10T02:30:35.827Z,14.03
2018-05-10T02:33:02.370Z,13.30
2018-05-10T02:35:29.037Z,16.13
2018-05-10T02:37:55.653Z,16.73
2018-05-10T02:40:22.283Z,12.33
2018-05-10T02:42:49.074Z,13.60
2018-05-10T02:45:15.669Z,13.60
2018-05-10T02:47:42.472Z,10.30
2018-05-10T02:50:09.044Z,12.03
2018-05-10T02:52:35.726Z,16.53
2018-05-10T02:55:02.466Z,15.37
2018-05-10T02:57:29.267Z,14.60
2018-05-10T02:59:55.787Z,16.20
2018-05-10T03:02:22.316Z,15.17
2018-05-10T03:04:48.981Z,12.90
2018-05-10T03:07:15.625Z,8.33
2018-05-10T03:09:42.123Z,9.30
2018-05-10T03:12:09.001Z,15.17
2018-05-10T03:14:35.658Z,12.17
2018-05-10T03:17:02.324Z,12.20
2018-05-10T03:19:28.925Z,12.33
2018-05-10T03:21:55.926Z,11.23
2018-05-10T03:24:22.510Z,16.57
2018-05-10T03:26:48.905Z,13.87
2018-05-10T03:29:15.434Z,15.53
2018-05-10T03:31:41.878Z,14.17
2018-05-10T03:34:08.348Z,17.07
2018-05-10T03:36:34.961Z,18.53
2018-05-10T03:39:01.649Z,15.17
2018-05-10T03:41:28.213Z,12.73
2018-05-10T03:43:54.899Z,11.93
2018-05-10T03:46:21.363Z,10.73
2018-05-10T03:48:47.777Z,16.77
2018-05-10T03:51:14.891Z,15.23
2018-05-10T03:53:41.545Z,13.70
2018-05-10T03:56:08.115Z,19.10
2018-05-10T03:58:34.606Z,16.30
2018-05-10T04:01:01.241Z,23.13
2018-05-10T04:03:50.698Z,24.93
2018-05-10T04:06:29.553Z,17.83
2018-05-10T04:09:08.216Z,21.00
2018-05-10T04:11:34.689Z,26.87
2018-05-10T04:14:01.241Z,28.77
2018-05-10T04:16:27.984Z,16.23
2018-05-10T04:18:54.472Z,22.53
2018-05-10T04:21:21.077Z,21.90
2018-05-10T04:23:47.512Z,16.43
2018-05-10T04:26:14.112Z,24.30
2018-05-10T04:28:40.540Z,20.90
2018-05-10T04:31:07.324Z,25.60
2018-05-10T04:33:34.105Z,21.87
2018-05-10T04:36:00.571Z,25.13
2018-05-10T04:38:27.049Z,26.80
2018-05-10T04:40:53.685Z,26.57
2018-05-10T04:43:20.142Z,31.30
2018-05-10T04:45:46.686Z,28.67
2018-05-10T04:48:13.162Z,30.87
2018-05-10T04:50:39.690Z,26.93
2018-05-10T04:53:06.255Z,29.40
2018-05-10T04:55:32.899Z,26.00
2018-05-10T04:57:59.416Z,28.70
2018-05-10T05:00:25.837Z,20.63
2018-05-10T05:02:52.603Z,29.17
2018-05-10T05:05:19.266Z,21.50
2018-05-10T05:07:45.988Z,31.20
2018-05-10T05:10:12.620Z,24.30
2018-05-10T05:12:39.078Z,28.87
2018-05-10T05:15:05.658Z,23.40
2018-05-10T05:17:32.119Z,21.60
2018-05-10T05:19:59.016Z,24.17
2018-05-10T05:22:25.674Z,29.20
2018-05-10T05:24:52.355Z,24.30
2018-05-10T05:27:18.991Z,24.43
2018-05-10T05:29:45.557Z,27.97
2018-05-10T05:32:12.165Z,41.80
2018-05-10T05:34:38.749Z,26.53
2018-05-10T05:37:05.602Z,29.67
2018-05-10T05:39:32.215Z,24.20
2018-05-10T05:41:58.969Z,20.30
2018-05-10T05:44:25.481Z,21.50
2018-05-10T05:46:52.053Z,25.40
2018-05-10T05:49:18.629Z,19.87
2018-05-10T05:51:45.163Z,18.27
2018-05-10T05:54:11.864Z,25.17
2018-05-10T05:56:38.387Z,13.93
2018-05-10T05:59:05.056Z,14.00
2018-05-10T06:01:31.540Z,12.33
2018-05-10T06:03:58.296Z,13.97
2018-05-10T06:06:24.881Z,18.37
2018-05-10T06:08:51.400Z,11.13
2018-05-10T06:11:17.957Z,15.60
2018-05-10T06:13:44.714Z,15.00
2018-05-10T06:16:11.298Z,9.80
2018-05-10T06:18:37.916Z,11.07
2018-05-10T06:21:04.411Z,14.70
2018-05-10T06:23:30.888Z,11.10
2018-05-10T06:25:57.459Z,11.50
2018-05-10T06:28:24.096Z,11.67
2018-05-10T06:30:50.624Z,12.47
2018-05-10T06:33:17.098Z,12.70
2018-05-10T06:35:43.679Z,12.63
2018-05-10T06:38:10.234Z,12.63
2018-05-10T06:40:37.423Z,8.40
2018-05-10T06:43:04.145Z,11.27
2018-05-10T06:45:30.667Z,13.37
2018-05-10T06:47:57.315Z,9.80
2018-05-10T06:50:23.734Z,13.33
2018-05-10T06:52:50.307Z,9.20
2018-05-10T06:55:16.928Z,8.40
2018-05-10T06:57:43.483Z,7.17
2018-05-10T07:00:10.103Z,6.00
2018-05-10T07:02:36.597Z,6.27
2018-05-10T07:05:03.209Z,6.83
2018-05-10T07:07:29.657Z,5.20
2018-05-10T07:09:56.418Z,3.63
2018-05-10T07:12:22.975Z,5.30
2018-05-10T07:14:49.568Z,4.30
2018-05-10T07:17:16.070Z,2.77
2018-05-10T07:19:42.762Z,4.87
2018-05-10T07:22:09.470Z,6.03
2018-05-10T07:24:35.977Z,4.73
2018-05-10T07:27:02.618Z,5.50
2018-05-10T07:29:29.259Z,12.03
2018-05-10T07:31:55.698Z,6.87
2018-05-10T07:34:22.270Z,6.50
2018-05-10T07:36:48.946Z,3.93
2018-05-10T07:39:15.602Z,5.43
2018-05-10T07:41:42.227Z,3.87
2018-05-10T07:44:08.850Z,8.20
2018-05-10T07:46:35.459Z,3.80
2018-05-10T07:49:02.090Z,5.53
2018-05-10T07:51:28.642Z,5.83
2018-05-10T07:53:55.130Z,4.80
2018-05-10T07:56:21.767Z,4.27
2018-05-10T07:58:48.388Z,4.50
2018-05-10T08:01:15.091Z,3.37
2018-05-10T08:03:41.770Z,5.47
2018-05-10T08:06:08.446Z,9.20
2018-05-10T08:08:35.036Z,5.63
2018-05-10T08:11:01.682Z,6.63
2018-05-10T08:13:28.164Z,4.33
2018-05-10T08:15:54.875Z,5.20
2018-05-10T08:18:21.470Z,4.47
2018-05-10T08:20:48.217Z,4.83
2018-05-10T08:23:14.771Z,4.53
2018-05-10T08:25:41.598Z,5.27
2018-05-10T08:28:08.440Z,4.70
2018-05-10T08:30:36.090Z,3.33
2018-05-10T08:33:03.723Z,5.47
2018-05-10T08:35:30.377Z,3.17
2018-05-10T08:37:57.049Z,3.80
2018-05-10T08:40:23.859Z,6.03
2018-05-10T08:42:51.298Z,4.47
2018-05-10T08:45:17.972Z,3.00
2018-05-10T08:47:44.642Z,3.00
2018-05-10T08:50:11.375Z,2.40
2018-05-10T08:52:37.987Z,3.00
2018-05-10T08:55:04.699Z,2.97
2018-05-10T08:57:31.244Z,3.70
2018-05-10T09:00:04.836Z,4.33
2018-05-10T09:02:31.546Z,5.17
2018-05-10T09:04:58.050Z,4.03
2018-05-10T09:07:24.814Z,2.87
2018-05-10T09:09:51.625Z,3.07
2018-05-10T09:12:18.248Z,6.87
2018-05-10T09:14:44.844Z,3.20
2018-05-10T09:17:11.392Z,6.80
2018-05-10T09:19:37.922Z,4.17
2018-05-10T09:22:04.523Z,4.60
2018-05-10T09:24:31.249Z,3.90
2018-05-10T09:26:57.924Z,5.50
2018-05-10T09:29:24.679Z,5.53
2018-05-10T09:31:51.329Z,7.37
2018-05-10T09:34:18.093Z,5.10
2018-05-10T09:36:44.729Z,3.30
2018-05-10T09:39:11.309Z,6.57
2018-05-10T09:41:37.943Z,3.20
2018-05-10T09:44:04.415Z,2.60
2018-05-10T09:46:31.752Z,5.53
2018-05-10T09:48:58.644Z,3.77
2018-05-10T09:51:25.329Z,3.90
2018-05-10T09:53:51.934Z,5.83
2018-05-10T09:56:18.484Z,6.57
2018-05-10T09:58:45.018Z,4.50
2018-05-10T10:01:11.480Z,2.90
2018-05-10T10:03:38.167Z,6.07
2018-05-10T10:06:04.867Z,3.30
2018-05-10T10:08:31.580Z,5.20
2018-05-10T10:10:58.094Z,5.00
2018-05-10T10:13:24.639Z,5.30
2018-05-10T10:15:51.213Z,4.87
2018-05-10T10:18:17.793Z,4.63
2018-05-10T10:20:44.422Z,4.10
2018-05-10T10:23:10.963Z,9.60
2018-05-10T10:25:37.575Z,2.43
2018-05-10T10:28:04.160Z,1.63
2018-05-10T10:30:30.865Z,4.03
2018-05-10T10:32:57.499Z,6.47
2018-05-10T10:35:24.155Z,5.27
2018-05-10T10:37:50.861Z,2.90
2018-05-10T10:40:17.647Z,3.40
2018-05-10T10:42:47.233Z,3.30
2018-05-10T10:45:13.816Z,5.07
2018-05-10T10:47:40.433Z,2.73
2018-05-10T10:50:14.050Z,4.00
2018-05-10T10:52:40.517Z,3.07
2018-05-10T10:55:07.224Z,2.73
2018-05-10T10:57:33.878Z,4.80
2018-05-10T11:00:00.588Z,1.83
2018-05-10T11:02:27.351Z,4.83
2018-05-10T11:04:53.832Z,4.90
2018-05-10T11:07:20.546Z,3.50
2018-05-10T11:09:47.078Z,4.40
2018-05-10T11:12:13.721Z,6.20
2018-05-10T11:14:40.373Z,4.57
2018-05-10T11:17:06.874Z,4.23
2018-05-10T11:19:33.546Z,6.37
2018-05-10T11:22:00.041Z,2.07
2018-05-10T11:24:26.667Z,8.53
2018-05-10T11:26:53.255Z,5.37
2018-05-10T11:29:19.946Z,5.87
2018-05-10T11:31:46.542Z,4.97
2018-05-10T11:34:13.186Z,4.13
2018-05-10T11:36:39.992Z,5.57
2018-05-10T11:39:06.756Z,6.97
2018-05-10T11:41:33.500Z,5.90
2018-05-10T11:44:00.049Z,6.47
2018-05-10T11:46:26.729Z,5.57
2018-05-10T11:48:53.447Z,7.20
2018-05-10T11:51:20.006Z,3.43
2018-05-10T11:53:46.716Z,5.27
2018-05-10T11:56:13.414Z,1.67
2018-05-10T11:58:40.508Z,3.73
2018-05-10T12:01:07.097Z,4.57
2018-05-10T12:03:33.747Z,8.47
2018-05-10T12:06:00.386Z,5.77
2018-05-10T12:08:26.888Z,7.90
2018-05-10T12:10:53.496Z,7.30
2018-05-10T12:13:20.044Z,4.93
2018-05-10T12:15:46.583Z,8.07
2018-05-10T12:18:13.272Z,8.37
2018-05-10T12:20:39.912Z,9.73
2018-05-10T12:23:06.422Z,7.73
2018-05-10T12:25:33.332Z,10.77
2018-05-10T12:28:00.105Z,4.13
2018-05-10T12:30:26.793Z,8.87
2018-05-10T12:32:53.260Z,9.43
2018-05-10T12:35:19.977Z,5.57
2018-05-10T12:37:46.813Z,9.83
2018-05-10T12:40:13.352Z,6.73
2018-05-10T12:42:40.061Z,8.83
2018-05-10T12:45:06.909Z,10.73
2018-05-10T12:47:33.482Z,14.00
2018-05-10T12:50:00.108Z,9.77
2018-05-10T12:52:26.643Z,5.13
2018-05-10T12:54:53.434Z,9.90
2018-05-10T12:57:20.141Z,13.97
2018-05-10T12:59:46.771Z,15.57
2018-05-10T13:02:13.343Z,11.13
2018-05-10T13:04:39.867Z,12.77
2018-05-10T13:07:06.563Z,7.53
2018-05-10T13:09:33.195Z,9.50
2018-05-10T13:11:59.863Z,9.47
2018-05-10T13:14:26.708Z,9.73
2018-05-10T13:16:53.299Z,7.80
2018-05-10T13:19:19.852Z,13.30
2018-05-10T13:21:46.617Z,13.20
2018-05-10T13:24:13.326Z,8.40
2018-05-10T13:26:39.867Z,6.63
2018-05-10T13:29:06.445Z,6.60
2018-05-10T13:31:32.984Z,10.93
2018-05-10T13:33:59.790Z,7.63
2018-05-10T13:36:26.376Z,6.93
2018-05-10T13:38:52.998Z,9.50
2018-05-10T13:41:19.649Z,6.87
2018-05-10T13:43:46.363Z,7.97
2018-05-10T13:46:13.089Z,9.63
2018-05-10T13:48:39.725Z,6.40
2018-05-10T13:51:06.410Z,7.90
2018-05-10T13:53:33.002Z,8.00
2018-05-10T13:55:59.509Z,9.07
2018-05-10T13:58:26.116Z,9.23
2018-05-10T14:00:52.599Z,5.60
2018-05-10T14:03:19.223Z,5.50
2018-05-10T14:05:45.848Z,8.53
2018-05-10T14:08:13.800Z,8.77
2018-05-10T14:10:40.957Z,5.33
2018-05-10T14:13:07.563Z,9.67
2018-05-10T14:15:34.170Z,10.00
2018-05-10T14:18:00.839Z,7.30
2018-05-10T14:20:27.321Z,6.20
2018-05-10T14:22:54.146Z,7.63
2018-05-10T14:25:20.872Z,11.10
2018-05-10T14:27:47.449Z,9.20
2018-05-10T14:30:14.130Z,9.10
2018-05-10T14:32:40.736Z,8.17
2018-05-10T14:35:07.403Z,11.60
2018-05-10T14:37:34.061Z,9.80
2018-05-10T14:40:01.017Z,7.23
2018-05-10T14:42:27.687Z,7.17
2018-05-10T14:44:54.343Z,5.63
2018-05-10T14:47:20.971Z,11.03
2018-05-10T14:49:48.075Z,8.77
2018-05-10T14:52:14.781Z,6.83
2018-05-10T14:54:41.393Z,7.90
2018-05-10T14:57:07.919Z,7.07
2018-05-10T14:59:34.719Z,5.10
2018-05-10T15:02:01.354Z,6.33
2018-05-10T15:04:27.873Z,5.97
2018-05-10T15:06:54.631Z,5.93
2018-05-10T15:09:21.133Z,9.20
2018-05-10T15:11:47.643Z,7.67
2018-05-10T15:14:14.519Z,7.47
2018-05-10T15:16:41.271Z,5.57
2018-05-10T15:19:07.775Z,8.47
2018-05-10T15:21:34.465Z,6.33
2018-05-10T15:24:01.113Z,6.50
2018-05-10T15:26:27.623Z,6.13
2018-05-10T15:28:54.268Z,9.10
2018-05-10T15:31:20.797Z,9.00
2018-05-10T15:33:47.233Z,6.47
2018-05-10T15:36:14.011Z,10.63
2018-05-10T15:38:40.646Z,5.90
2018-05-10T15:41:07.197Z,5.60
2018-05-10T15:43:33.926Z,7.40
2018-05-10T15:46:00.633Z,5.60
2018-05-10T15:48:27.145Z,9.93
2018-05-10T15:50:53.621Z,8.03
2018-05-10T15:53:21.193Z,9.93
2018-05-10T15:55:47.897Z,9.13
2018-05-10T15:58:14.477Z,9.30
2018-05-10T16:00:41.034Z,6.83
2018-05-10T16:03:07.679Z,12.03
2018-05-10T16:05:34.464Z,6.07
2018-05-10T16:08:00.995Z,8.03
2018-05-10T16:10:27.598Z,5.60
2018-05-10T16:12:54.069Z,6.17
2018-05-10T16:15:20.636Z,8.00
2018-05-10T16:17:47.181Z,8.83
2018-05-10T16:20:13.656Z,6.20
2018-05-10T16:22:40.195Z,7.33
2018-05-10T16:25:06.741Z,10.77
2018-05-10T16:27:33.337Z,7.90
2018-05-10T16:30:00.106Z,9.37
2018-05-10T16:32:26.694Z,11.53
2018-05-10T16:34:53.284Z,8.23
2018-05-10T16:37:19.793Z,6.03
2018-05-10T16:39:46.321Z,5.33
2018-05-10T16:42:13.077Z,4.50
2018-05-10T16:44:39.598Z,5.40
2018-05-10T16:47:06.358Z,6.70
2018-05-10T16:49:33.673Z,5.80
2018-05-10T16:52:00.353Z,6.90
2018-05-10T16:54:27.341Z,10.87
2018-05-10T16:56:53.999Z,9.50
2018-05-10T16:59:20.559Z,10.43
2018-05-10T17:01:47.223Z,9.83
2018-05-10T17:04:14.334Z,8.87
2018-05-10T17:06:41.003Z,10.03
2018-05-10T17:09:07.726Z,8.60
2018-05-10T17:11:34.400Z,5.50
2018-05-10T17:14:01.104Z,4.70
2018-05-10T17:16:27.763Z,6.33
2018-05-10T17:18:55.379Z,7.17
2018-05-10T17:21:23.280Z,5.90
2018-05-10T17:23:50.052Z,9.07
2018-05-10T17:26:16.627Z,8.60
2018-05-10T17:28:43.270Z,7.40
2018-05-10T17:31:09.901Z,6.73
2018-05-10T17:33:36.432Z,5.53
2018-05-10T17:36:03.035Z,10.33
2018-05-10T17:38:29.734Z,7.43
2018-05-10T17:40:56.625Z,7.93
2018-05-10T17:43:23.684Z,6.30
2018-05-10T17:45:50.464Z,7.13
2018-05-10T17:48:17.143Z,8.47
2018-05-10T17:50:44.321Z,7.20
2018-05-10T17:53:11.358Z,5.13
2018-05-10T17:55:38.062Z,11.63
2018-05-10T17:58:04.556Z,17.37
2018-05-10T18:00:31.109Z,10.70
2018-05-10T18:02:57.692Z,11.17
2018-05-10T18:05:24.116Z,6.23
2018-05-10T18:07:50.606Z,9.70
2018-05-10T18:10:17.343Z,7.50
2018-05-10T18:12:43.928Z,6.03
2018-05-10T18:15:11.019Z,7.03
2018-05-10T18:17:37.488Z,7.40
2018-05-10T18:20:04.136Z,5.23
2018-05-10T18:22:31.042Z,11.57
2018-05-10T18:24:58.420Z,5.83
2018-05-10T18:27:25.047Z,7.00
2018-05-10T18:29:51.738Z,6.00
2018-05-10T18:32:18.220Z,5.63
2018-05-10T18:34:44.880Z,9.37
2018-05-10T18:37:11.482Z,3.60
2018-05-10T18:39:37.949Z,5.73
2018-05-10T18:42:04.432Z,8.37
2018-05-10T18:44:31.008Z,8.23
2018-05-10T18:46:57.592Z,5.30
2018-05-10T18:49:24.377Z,6.70
2018-05-10T18:51:50.977Z,10.57
2018-05-10T18:54:17.435Z,3.73
2018-05-10T18:56:44.009Z,9.27
2018-05-10T18:59:10.689Z,9.30
2018-05-10T19:01:37.064Z,4.70
2018-05-10T19:04:03.658Z,7.27
2018-05-10T19:06:32.995Z,7.67
2018-05-10T19:08:59.677Z,7.93
2018-05-10T19:11:26.256Z,7.20
2018-05-10T19:13:52.854Z,4.23
2018-05-10T19:16:19.293Z,4.00
2018-05-10T19:18:45.772Z,5.43
2018-05-10T19:21:12.270Z,6.57
2018-05-10T19:23:39.369Z,6.50
2018-05-10T19:26:06.003Z,7.20
2018-05-10T19:28:34.592Z,11.00
2018-05-10T19:31:01.146Z,8.00
2018-05-10T19:33:27.721Z,4.43
2018-05-10T19:35:54.229Z,5.33
2018-05-10T19:38:20.579Z,9.43
2018-05-10T19:40:47.081Z,5.13
2018-05-10T19:43:13.847Z,5.33
2018-05-10T19:45:40.293Z,6.63
2018-05-10T19:48:06.828Z,7.27
2018-05-10T19:50:33.465Z,7.63
2018-05-10T19:53:01.323Z,7.00
2018-05-10T19:55:27.803Z,8.63
2018-05-10T19:57:54.214Z,6.27
2018-05-10T20:00:20.765Z,7.77
2018-05-10T20:02:47.156Z,6.67
2018-05-10T20:05:13.705Z,5.63
2018-05-10T20:07:40.317Z,4.53
2018-05-10T20:10:06.793Z,4.70
2018-05-10T20:12:33.405Z,7.03
2018-05-10T20:14:59.904Z,4.20
2018-05-10T20:17:26.592Z,4.07
2018-05-10T20:19:53.126Z,6.57
2018-05-10T20:22:19.872Z,5.10
2018-05-10T20:24:46.401Z,7.20
2018-05-10T20:27:12.903Z,7.60
2018-05-10T20:29:39.416Z,4.83
2018-05-10T20:32:06.048Z,6.23
2018-05-10T20:34:32.853Z,4.77
2018-05-10T20:36:59.515Z,6.33
2018-05-10T20:39:26.810Z,4.80
2018-05-10T20:41:53.228Z,4.30
2018-05-10T20:44:19.827Z,4.37
2018-05-10T20:46:46.345Z,5.60
2018-05-10T20:49:12.886Z,6.77
2018-05-10T20:51:39.210Z,5.93
2018-05-10T20:54:05.620Z,4.50
2018-05-10T20:56:32.052Z,6.70
2018-05-10T20:58:58.637Z,5.67
2018-05-10T21:01:25.152Z,5.93
2018-05-10T21:03:51.592Z,6.03
2018-05-10T21:06:18.029Z,4.63
2018-05-10T21:08:44.486Z,5.93
2018-05-10T21:11:11.208Z,8.40
2018-05-10T21:13:37.624Z,6.70
2018-05-10T21:16:04.108Z,7.83
2018-05-10T21:18:30.592Z,5.90
2018-05-10T21:20:57.253Z,6.30
2018-05-10T21:23:25.317Z,5.67
2018-05-10T21:25:51.820Z,5.37
2018-05-10T21:28:18.899Z,6.23
2018-05-10T21:30:45.417Z,7.93
2018-05-10T21:33:12.925Z,5.03
2018-05-10T21:35:39.476Z,7.73
2018-05-10T21:38:06.022Z,5.70
2018-05-10T21:40:32.434Z,6.27
2018-05-10T21:42:59.713Z,5.90
2018-05-10T21:45:26.262Z,4.70
2018-05-10T21:47:52.974Z,6.13
2018-05-10T21:50:19.632Z,5.63
2018-05-10T21:52:46.111Z,7.67
2018-05-10T21:55:12.799Z,5.10
2018-05-10T21:57:39.474Z,6.93
2018-05-10T22:00:06.151Z,9.97
2018-05-10T22:02:33.042Z,4.30
2018-05-10T22:04:59.767Z,5.00
2018-05-10T22:07:26.672Z,7.93
2018-05-10T22:09:53.443Z,6.83
2018-05-10T22:12:20.073Z,5.23
2018-05-10T22:14:46.968Z,4.50
2018-05-10T22:17:13.744Z,4.77
2018-05-10T22:19:40.439Z,4.73
2018-05-10T22:22:06.902Z,6.77
2018-05-10T22:24:33.465Z,5.43
2018-05-10T22:27:00.263Z,5.80
2018-05-10T22:29:26.860Z,6.27
2018-05-10T22:31:53.282Z,4.03
2018-05-10T22:34:19.819Z,3.07
2018-05-10T22:36:46.321Z,5.33
2018-05-10T22:39:12.862Z,7.43
2018-05-10T22:41:39.523Z,6.97
2018-05-10T22:44:06.238Z,6.93
2018-05-10T22:46:32.759Z,6.63
2018-05-10T22:48:59.539Z,7.40
2018-05-10T22:51:25.971Z,5.93
2018-05-10T22:53:52.515Z,5.67
2018-05-10T22:56:19.181Z,5.43
2018-05-10T22:58:45.749Z,3.90
2018-05-10T23:01:12.328Z,4.90
2018-05-10T23:03:38.920Z,6.63
2018-05-10T23:06:05.460Z,5.00
2018-05-10T23:08:32.128Z,4.67
2018-05-10T23:10:58.649Z,5.00
2018-05-10T23:13:25.052Z,9.63
2018-05-10T23:15:51.714Z,6.07
2018-05-10T23:18:18.409Z,7.60
2018-05-10T23:20:44.983Z,6.07
2018-05-10T23:23:11.664Z,5.17
2018-05-10T23:25:38.348Z,4.57
2018-05-10T23:28:04.988Z,5.77
2018-05-10T23:30:31.709Z,12.23
2018-05-10T23:32:58.332Z,6.23
2018-05-10T23:35:24.800Z,5.63
2018-05-10T23:37:51.431Z,5.90
2018-05-10T23:40:18.065Z,5.90
2018-05-10T23:42:44.668Z,7.27
2018-05-10T23:45:11.356Z,6.07
2018-05-10T23:47:37.978Z,5.30
2018-05-10T23:50:04.739Z,7.83
2018-05-10T23:52:31.362Z,7.83
2018-05-10T23:54:57.953Z,6.30
2018-05-10T23:57:24.598Z,7.30
2018-05-10T23:59:51.336Z,8.23
